Time;durP1;ratioP1;P1;durP2;ratioP2;P2;SDS_P1;SDS_P2;PMS_P1;PMS_P2;Temp;Humidity;BMP_temperature;BMP_pressure;BME280_temperature;BME280_humidity;BME280_pressure;Samples;Min_cycle;Max_cycle;Signal;HPM_P1;HPM_P2
2021/10/08 00:01:12;;;;;;;25.63;17.23;;;8.20;99.90;;;;;;5000164;28;20175;-82
2021/10/08 00:03:38;;;;;;;27.53;17.30;;;8.20;99.90;;;;;;4984075;28;20540;-82
2021/10/08 00:06:03;;;;;;;27.80;17.10;;;8.10;99.90;;;;;;4984139;28;20210;-81
2021/10/08 00:08:29;;;;;;;23.63;16.67;;;8.10;99.90;;;;;;4999765;28;20670;-81
2021/10/08 00:10:54;;;;;;;23.80;16.37;;;8.10;99.90;;;;;;4983922;28;20225;-82
2021/10/08 00:13:20;;;;;;;23.07;16.50;;;8.10;99.90;;;;;;4983397;28;20180;-82
2021/10/08 00:15:46;;;;;;;26.40;17.53;;;8.00;99.90;;;;;;4983266;28;20258;-82
2021/10/08 00:18:11;;;;;;;25.97;16.53;;;8.00;99.90;;;;;;4984102;28;20175;-81
2021/10/08 00:20:37;;;;;;;24.23;16.93;;;8.00;99.90;;;;;;4983521;28;20225;-81
2021/10/08 00:23:02;;;;;;;23.13;16.73;;;7.90;99.90;;;;;;4983631;28;20175;-82
2021/10/08 00:25:28;;;;;;;21.70;15.37;;;7.90;99.90;;;;;;4999493;28;20203;-82
2021/10/08 00:27:54;;;;;;;25.80;16.07;;;7.90;99.90;;;;;;4999196;28;20273;-79
2021/10/08 00:30:19;;;;;;;24.27;16.00;;;7.90;99.90;;;;;;4983308;28;20627;-81
2021/10/08 00:32:45;;;;;;;27.47;17.23;;;7.90;99.90;;;;;;4983298;28;20653;-81
2021/10/08 00:35:10;;;;;;;25.93;17.20;;;7.80;99.90;;;;;;4999109;28;20205;-81
2021/10/08 00:37:36;;;;;;;26.50;17.30;;;7.80;99.90;;;;;;4982991;28;20183;-81
2021/10/08 00:40:02;;;;;;;28.13;17.47;;;7.80;99.90;;;;;;4998989;28;20236;-81
2021/10/08 00:42:28;;;;;;;27.73;16.80;;;7.70;99.90;;;;;;4983276;28;20260;-81
2021/10/08 00:44:53;;;;;;;26.03;17.30;;;7.70;99.90;;;;;;4983527;28;20235;-82
2021/10/08 00:47:19;;;;;;;25.30;16.27;;;7.70;99.90;;;;;;4983986;28;20257;-80
2021/10/08 00:49:45;;;;;;;23.77;15.53;;;7.70;99.90;;;;;;4999033;28;20187;-82
2021/10/08 00:52:10;;;;;;;24.30;15.87;;;7.70;99.90;;;;;;4983323;28;20218;-82
2021/10/08 00:54:36;;;;;;;23.57;15.63;;;7.60;99.90;;;;;;4982832;28;20242;-80
2021/10/08 00:57:01;;;;;;;23.47;17.00;;;7.60;99.90;;;;;;4983008;28;20193;-81
2021/10/08 00:59:28;;;;;;;22.03;15.93;;;7.70;99.90;;;;;;4982939;28;20546;-82
2021/10/08 01:01:53;;;;;;;25.07;15.97;;;7.60;99.90;;;;;;4983180;28;20183;-82
2021/10/08 01:04:19;;;;;;;24.30;16.27;;;7.60;99.90;;;;;;4998803;28;20709;-82
2021/10/08 01:06:44;;;;;;;22.67;14.60;;;7.60;99.90;;;;;;4999378;28;20209;-82
2021/10/08 01:09:10;;;;;;;21.90;15.20;;;7.50;99.90;;;;;;4983094;28;20175;-81
2021/10/08 01:11:36;;;;;;;23.40;15.33;;;7.50;99.90;;;;;;4998934;28;20183;-82
2021/10/08 01:14:03;;;;;;;23.93;15.70;;;7.50;99.90;;;;;;4984226;28;20230;-82
2021/10/08 01:16:28;;;;;;;20.97;14.83;;;7.40;99.90;;;;;;4999202;28;20222;-82
2021/10/08 01:18:54;;;;;;;22.63;15.30;;;7.40;99.90;;;;;;4981745;28;20277;-82
2021/10/08 01:21:20;;;;;;;19.13;14.50;;;7.50;99.90;;;;;;4982064;28;20271;-82
2021/10/08 01:23:48;;;;;;;20.17;13.93;;;7.50;99.90;;;;;;4997803;28;20180;-81
2021/10/08 01:26:14;;;;;;;20.97;14.17;;;7.50;99.90;;;;;;4982616;28;20259;-82
2021/10/08 01:28:39;;;;;;;20.50;14.27;;;7.50;99.90;;;;;;4982019;28;20208;-82
2021/10/08 01:31:06;;;;;;;25.53;14.97;;;7.40;99.90;;;;;;4981613;28;20613;-82
2021/10/08 01:33:32;;;;;;;21.77;14.10;;;7.40;99.90;;;;;;4982260;28;20182;-82
2021/10/08 01:35:58;;;;;;;23.23;15.20;;;7.30;99.90;;;;;;4982424;28;20210;-82
2021/10/08 01:38:23;;;;;;;21.10;15.00;;;7.30;99.90;;;;;;4981425;28;20183;-82
2021/10/08 01:40:49;;;;;;;21.07;14.47;;;7.30;99.90;;;;;;4981386;28;20189;-82
2021/10/08 01:43:14;;;;;;;23.60;14.13;;;7.30;99.90;;;;;;4981757;28;20180;-82
2021/10/08 01:45:40;;;;;;;19.97;14.03;;;7.30;99.90;;;;;;4982114;28;20576;-82
2021/10/08 01:48:06;;;;;;;24.10;13.90;;;7.30;99.90;;;;;;4998152;28;20202;-82
2021/10/08 01:50:32;;;;;;;20.83;13.87;;;7.20;99.90;;;;;;4982179;28;20557;-82
2021/10/08 01:52:58;;;;;;;19.23;13.33;;;7.10;99.90;;;;;;4982917;28;20175;-82
2021/10/08 01:55:24;;;;;;;20.53;13.57;;;7.20;99.90;;;;;;4982291;28;20211;-82
2021/10/08 01:57:49;;;;;;;19.50;14.07;;;7.20;99.90;;;;;;4982014;28;20188;-82
2021/10/08 02:00:15;;;;;;;18.63;13.63;;;7.20;99.90;;;;;;4981912;28;20390;-82
2021/10/08 02:02:41;;;;;;;19.83;13.40;;;7.20;99.90;;;;;;4981539;28;20183;-82
2021/10/08 02:05:06;;;;;;;21.60;13.57;;;7.10;99.90;;;;;;4980878;28;20210;-82
2021/10/08 02:07:32;;;;;;;20.13;13.47;;;7.10;99.90;;;;;;4997686;28;20216;-82
2021/10/08 02:09:57;;;;;;;20.77;13.80;;;7.00;99.90;;;;;;4981490;28;20175;-82
2021/10/08 02:12:23;;;;;;;17.70;12.87;;;7.00;99.90;;;;;;4980238;28;20586;-82
2021/10/08 02:14:49;;;;;;;18.80;13.23;;;7.10;99.90;;;;;;4981480;28;20211;-82
2021/10/08 02:17:14;;;;;;;21.57;13.70;;;7.00;99.90;;;;;;4981033;28;20179;-82
2021/10/08 02:19:40;;;;;;;19.00;13.90;;;7.10;99.90;;;;;;4980934;28;20623;-79
2021/10/08 02:22:06;;;;;;;21.43;13.27;;;7.00;99.90;;;;;;4981924;28;20713;-82
2021/10/08 02:24:31;;;;;;;20.23;13.40;;;7.00;99.90;;;;;;4997551;28;20192;-82
2021/10/08 02:26:57;;;;;;;18.10;12.63;;;7.00;99.90;;;;;;4981382;28;20235;-82
2021/10/08 02:29:23;;;;;;;17.70;13.00;;;7.00;99.90;;;;;;4980730;28;20222;-82
2021/10/08 02:31:49;;;;;;;17.30;11.60;;;7.00;99.90;;;;;;4997008;28;20180;-82
2021/10/08 02:34:14;;;;;;;20.80;13.23;;;6.90;99.90;;;;;;4996807;28;20192;-82
2021/10/08 02:36:40;;;;;;;16.97;12.20;;;6.90;99.90;;;;;;4981084;28;20185;-82
2021/10/08 02:39:05;;;;;;;18.00;12.73;;;6.90;99.90;;;;;;4980735;28;20179;-82
2021/10/08 02:41:31;;;;;;;19.80;12.33;;;6.90;99.90;;;;;;4996848;28;20250;-82
2021/10/08 02:43:56;;;;;;;17.73;12.57;;;6.90;99.90;;;;;;4980641;28;20171;-82
2021/10/08 02:46:22;;;;;;;22.00;13.33;;;6.80;99.90;;;;;;4980301;28;20180;-82
2021/10/08 02:48:48;;;;;;;21.93;14.77;;;6.80;99.90;;;;;;4980095;28;20245;-82
2021/10/08 02:51:13;;;;;;;19.27;13.43;;;6.80;99.90;;;;;;4981206;28;20175;-82
2021/10/08 02:53:39;;;;;;;21.73;14.17;;;6.70;99.90;;;;;;4980265;28;20179;-82
2021/10/08 02:56:04;;;;;;;21.40;14.70;;;6.80;99.90;;;;;;4979930;28;20242;-82
2021/10/08 02:58:30;;;;;;;23.10;15.00;;;6.70;99.90;;;;;;4998025;28;20705;-82
2021/10/08 03:00:56;;;;;;;21.93;14.53;;;6.70;99.90;;;;;;4997169;28;20183;-82
2021/10/08 03:03:21;;;;;;;21.73;14.17;;;6.80;99.90;;;;;;4980555;28;20179;-82
2021/10/08 03:05:47;;;;;;;23.17;15.03;;;6.70;99.90;;;;;;4996860;28;20195;-82
2021/10/08 03:08:12;;;;;;;22.50;14.43;;;6.70;99.90;;;;;;4980338;28;20208;-82
2021/10/08 03:10:38;;;;;;;27.00;14.03;;;6.70;99.90;;;;;;4980792;28;20203;-82
2021/10/08 03:13:03;;;;;;;23.27;13.70;;;6.70;99.90;;;;;;4980635;28;20190;-82
2021/10/08 03:15:29;;;;;;;20.07;13.43;;;6.70;99.90;;;;;;4980339;28;20205;-82
2021/10/08 03:17:55;;;;;;;22.40;14.30;;;6.70;99.90;;;;;;4979640;28;20175;-82
2021/10/08 03:20:20;;;;;;;21.07;13.37;;;6.70;99.90;;;;;;4996506;28;20208;-82
2021/10/08 03:22:46;;;;;;;20.77;13.23;;;6.70;99.90;;;;;;4980971;28;20187;-82
2021/10/08 03:25:11;;;;;;;18.33;12.60;;;6.70;99.90;;;;;;4984193;28;20302;-82
2021/10/08 03:27:37;;;;;;;17.23;12.03;;;6.70;99.90;;;;;;4984054;28;20429;-82
2021/10/08 03:30:04;;;;;;;19.20;11.60;;;6.70;99.90;;;;;;4984211;28;20226;-82
2021/10/08 03:32:30;;;;;;;17.33;12.00;;;6.70;99.90;;;;;;5000329;28;20555;-82
2021/10/08 03:34:55;;;;;;;17.43;12.03;;;6.70;99.90;;;;;;4984129;28;20200;-83
2021/10/08 03:37:25;;;;;;;18.00;12.40;;;6.60;99.90;;;;;;4983747;28;20266;-82
2021/10/08 03:39:51;;;;;;;18.47;12.90;;;6.60;99.90;;;;;;5000984;28;20623;-82
2021/10/08 03:42:18;;;;;;;19.23;12.73;;;6.60;99.90;;;;;;5000200;28;20211;-81
2021/10/08 03:44:52;;;;;;;17.30;12.20;;;6.60;99.90;;;;;;4984488;28;20578;-82
2021/10/08 03:47:33;;;;;;;17.57;12.37;;;6.60;99.90;;;;;;4986003;28;20828;-79
2021/10/08 03:49:59;;;;;;;15.63;11.50;;;6.50;99.90;;;;;;4988421;28;20180;-79
2021/10/08 03:52:24;;;;;;;19.27;13.00;;;6.50;99.90;;;;;;4984135;28;20180;-81
2021/10/08 03:54:50;;;;;;;17.97;11.90;;;6.60;99.90;;;;;;5028899;23;20628;-81
2021/10/08 03:57:15;;;;;;;15.87;11.50;;;6.50;99.90;;;;;;5036788;28;20237;-81
2021/10/08 03:59:41;;;;;;;18.30;12.53;;;6.50;99.90;;;;;;5036912;28;20171;-79
2021/10/08 04:02:06;;;;;;;18.37;12.57;;;6.50;99.90;;;;;;5020941;28;20596;-80
2021/10/08 04:04:32;;;;;;;20.47;12.40;;;6.50;99.90;;;;;;5033603;28;20684;-80
2021/10/08 04:06:57;;;;;;;19.40;12.43;;;6.40;99.90;;;;;;4999541;28;20180;-76
2021/10/08 04:09:23;;;;;;;20.97;12.97;;;6.50;99.90;;;;;;5014579;28;20173;-76
2021/10/08 04:11:48;;;;;;;17.00;12.20;;;6.50;99.90;;;;;;4997859;28;20254;-77
2021/10/08 04:14:14;;;;;;;18.40;12.83;;;6.50;99.90;;;;;;4997859;28;20175;-77
2021/10/08 04:16:39;;;;;;;16.47;12.60;;;6.50;99.90;;;;;;4998183;28;20230;-77
2021/10/08 04:19:05;;;;;;;19.80;12.23;;;6.40;99.90;;;;;;5014306;28;20174;-77
2021/10/08 04:21:31;;;;;;;17.43;12.47;;;6.40;99.90;;;;;;4998084;28;20262;-78
2021/10/08 04:23:56;;;;;;;20.17;12.83;;;6.50;99.90;;;;;;5015853;28;20349;-81
2021/10/08 04:26:22;;;;;;;19.70;13.07;;;6.40;99.90;;;;;;5015744;28;20204;-80
2021/10/08 04:28:47;;;;;;;16.03;12.40;;;6.40;99.90;;;;;;5000171;28;20214;-79
2021/10/08 04:31:13;;;;;;;16.83;12.10;;;6.40;99.90;;;;;;4999510;28;20318;-81
2021/10/08 04:33:39;;;;;;;17.80;11.90;;;6.40;99.90;;;;;;5016952;28;20180;-80
2021/10/08 04:36:04;;;;;;;18.10;12.60;;;6.30;99.90;;;;;;4999171;28;20214;-81
2021/10/08 04:38:30;;;;;;;17.93;12.03;;;6.30;99.90;;;;;;5015929;28;20256;-80
2021/10/08 04:40:56;;;;;;;19.80;12.93;;;6.30;99.90;;;;;;5000380;28;20187;-80
2021/10/08 04:43:21;;;;;;;19.10;12.20;;;6.30;99.90;;;;;;5016007;28;20218;-81
2021/10/08 04:45:47;;;;;;;17.73;11.97;;;6.40;99.90;;;;;;5016000;28;20410;-80
2021/10/08 04:48:13;;;;;;;15.73;11.47;;;6.30;99.90;;;;;;4999358;28;20211;-80
2021/10/08 04:50:38;;;;;;;20.13;12.47;;;6.20;99.90;;;;;;5015164;28;20190;-80
2021/10/08 04:53:15;;;;;;;19.23;12.10;;;6.20;99.90;;;;;;5015648;28;20716;-78
2021/10/08 04:55:40;;;;;;;18.20;12.80;;;6.20;99.90;;;;;;5014625;28;20630;-82
2021/10/08 04:58:06;;;;;;;17.27;11.93;;;6.10;99.90;;;;;;4997738;28;20213;-81
2021/10/08 05:00:31;;;;;;;17.70;12.23;;;6.10;99.90;;;;;;4998465;28;20204;-81
2021/10/08 05:02:57;;;;;;;17.67;12.17;;;6.10;99.90;;;;;;4998553;28;20187;-82
2021/10/08 05:05:22;;;;;;;16.67;12.17;;;6.10;99.90;;;;;;4999165;28;20211;-81
2021/10/08 05:07:48;;;;;;;18.77;11.83;;;6.10;99.90;;;;;;5013375;28;20213;-79
2021/10/08 05:10:13;;;;;;;18.73;12.20;;;6.10;99.90;;;;;;4996820;28;20191;-78
2021/10/08 05:12:39;;;;;;;16.37;11.63;;;6.10;99.90;;;;;;5012896;28;20179;-78
2021/10/08 05:15:05;;;;;;;18.73;11.27;;;6.10;99.90;;;;;;5012719;28;20191;-78
2021/10/08 05:17:30;;;;;;;14.90;11.63;;;6.10;99.90;;;;;;5011632;28;20189;-80
2021/10/08 05:19:56;;;;;;;20.87;11.70;;;6.10;99.90;;;;;;4990060;28;20192;-81
2021/10/08 05:22:21;;;;;;;18.00;12.13;;;6.10;99.90;;;;;;4999815;28;20206;-81
2021/10/08 05:24:47;;;;;;;17.47;12.20;;;6.10;99.90;;;;;;5012921;28;20199;-80
2021/10/08 05:27:12;;;;;;;18.00;11.90;;;6.00;99.90;;;;;;5013460;28;20207;-79
2021/10/08 05:29:38;;;;;;;17.17;11.23;;;6.10;99.90;;;;;;5013437;28;20187;-81
2021/10/08 05:32:04;;;;;;;16.47;11.37;;;6.00;99.90;;;;;;5012770;28;20186;-78
2021/10/08 05:34:29;;;;;;;18.57;11.40;;;5.90;99.90;;;;;;5012595;28;20200;-78
2021/10/08 05:36:55;;;;;;;17.37;11.17;;;6.00;99.90;;;;;;5012580;28;20176;-77
2021/10/08 05:39:20;;;;;;;17.43;11.97;;;6.00;99.90;;;;;;5012147;28;20662;-77
2021/10/08 05:41:46;;;;;;;16.63;11.60;;;6.00;99.90;;;;;;5012343;28;20255;-77
2021/10/08 05:44:11;;;;;;;15.27;10.73;;;5.90;99.90;;;;;;5012135;28;20172;-76
2021/10/08 05:46:37;;;;;;;16.47;11.00;;;5.90;99.90;;;;;;5011128;28;20237;-77
2021/10/08 05:49:03;;;;;;;17.60;11.47;;;5.90;99.90;;;;;;5011858;28;20203;-76
2021/10/08 05:51:28;;;;;;;15.33;11.00;;;6.00;99.90;;;;;;5012241;28;20561;-77
2021/10/08 05:53:54;;;;;;;19.13;12.73;;;6.00;99.90;;;;;;5012239;28;20167;-80
2021/10/08 05:56:19;;;;;;;18.50;11.77;;;5.90;99.90;;;;;;4996641;28;20230;-80
2021/10/08 05:58:45;;;;;;;17.70;12.27;;;6.00;99.90;;;;;;5012282;28;20181;-81
2021/10/08 06:01:10;;;;;;;17.93;11.60;;;6.00;99.90;;;;;;5013100;28;20176;-81
2021/10/08 06:03:36;;;;;;;16.10;11.90;;;6.00;99.90;;;;;;5012112;28;20176;-75
2021/10/08 06:06:02;;;;;;;17.53;11.97;;;6.00;99.90;;;;;;5011679;28;20288;-76
2021/10/08 06:08:28;;;;;;;18.33;11.90;;;6.00;99.90;;;;;;5011440;28;20646;-79
2021/10/08 06:10:53;;;;;;;19.27;12.17;;;6.10;99.90;;;;;;5012015;28;20714;-76
2021/10/08 06:13:19;;;;;;;16.07;11.63;;;6.10;99.90;;;;;;4995454;28;20181;-78
2021/10/08 06:15:44;;;;;;;17.23;11.83;;;6.10;99.90;;;;;;5011573;28;20203;-76
2021/10/08 06:18:10;;;;;;;15.83;11.63;;;6.20;99.90;;;;;;4995064;28;20179;-78
2021/10/08 06:20:35;;;;;;;15.97;11.47;;;6.20;99.90;;;;;;5011816;28;20283;-81
2021/10/08 06:23:01;;;;;;;16.80;12.40;;;6.20;99.90;;;;;;5011858;28;20207;-79
2021/10/08 06:25:26;;;;;;;16.20;11.60;;;6.20;99.90;;;;;;5011300;28;20195;-79
2021/10/08 06:27:52;;;;;;;18.93;12.20;;;6.30;99.90;;;;;;5011258;28;20242;-77
2021/10/08 06:30:19;;;;;;;15.80;12.07;;;6.40;99.90;;;;;;5011693;28;20179;-77
2021/10/08 06:32:44;;;;;;;17.23;11.83;;;6.40;99.90;;;;;;5011665;28;20176;-77
2021/10/08 06:35:10;;;;;;;23.00;13.10;;;6.60;99.90;;;;;;4996580;28;20205;-77
2021/10/08 06:37:35;;;;;;;20.57;14.47;;;6.70;99.90;;;;;;4992036;28;20184;-79
2021/10/08 06:40:01;;;;;;;19.07;12.63;;;6.80;99.90;;;;;;4976321;28;20190;-77
2021/10/08 06:42:26;;;;;;;18.43;12.87;;;7.00;99.90;;;;;;4993766;28;20184;-81
2021/10/08 06:44:53;;;;;;;22.77;15.23;;;7.10;99.90;;;;;;4960439;28;20206;-80
2021/10/08 06:47:18;;;;;;;18.83;13.63;;;7.30;99.90;;;;;;4979477;28;20202;-84
2021/10/08 06:49:44;;;;;;;19.60;12.93;;;7.50;99.90;;;;;;4960174;28;20184;-81
2021/10/08 06:52:09;;;;;;;16.03;12.10;;;7.60;99.90;;;;;;4960524;28;20539;-80
2021/10/08 06:54:35;;;;;;;18.07;11.47;;;7.70;99.90;;;;;;4960870;28;20270;-82
2021/10/08 06:57:01;;;;;;;23.90;17.27;;;7.90;99.90;;;;;;4959467;28;20177;-77
2021/10/08 06:59:26;;;;;;;24.40;15.47;;;8.10;99.90;;;;;;4974605;28;20185;-73
2021/10/08 07:01:53;;;;;;;21.27;15.20;;;8.30;99.90;;;;;;4995231;28;20187;-73
2021/10/08 07:04:19;;;;;;;16.83;12.20;;;8.40;99.90;;;;;;5027404;28;20187;-75
2021/10/08 07:06:45;;;;;;;16.37;11.40;;;8.60;99.90;;;;;;5011173;28;20175;-71
2021/10/08 07:09:10;;;;;;;16.80;11.50;;;8.80;99.90;;;;;;5012176;28;20243;-75
2021/10/08 07:11:36;;;;;;;17.20;11.37;;;9.00;99.90;;;;;;5027635;28;20178;-73
2021/10/08 07:14:01;;;;;;;13.50;10.40;;;9.20;99.90;;;;;;5007414;28;20705;-78
2021/10/08 07:16:27;;;;;;;15.53;10.80;;;9.40;99.90;;;;;;5010322;28;20577;-76
2021/10/08 07:18:54;;;;;;;14.73;10.83;;;9.60;99.90;;;;;;4991869;28;20187;-77
2021/10/08 07:21:20;;;;;;;12.60;10.50;;;9.90;99.90;;;;;;4993787;28;20187;-79
2021/10/08 07:24:24;;;;;;;18.93;11.23;;;10.00;99.90;;;;;;5094968;28;20506;-80
2021/10/08 07:26:50;;;;;;;14.80;10.90;;;10.30;99.90;;;;;;5092471;28;20297;-80
2021/10/08 07:29:16;;;;;;;15.33;11.70;;;10.50;99.90;;;;;;5093114;28;20192;-79
2021/10/08 07:31:41;;;;;;;13.03;10.33;;;10.80;99.90;;;;;;5093387;28;20202;-80
2021/10/08 07:34:07;;;;;;;13.83;10.57;;;10.90;99.90;;;;;;5110314;28;20187;-80
2021/10/08 07:36:33;;;;;;;18.00;11.47;;;11.10;99.90;;;;;;5093500;28;20183;-80
2021/10/08 07:38:58;;;;;;;13.20;10.47;;;11.30;99.90;;;;;;5092859;28;20248;-80
2021/10/08 07:41:24;;;;;;;13.50;10.60;;;11.50;99.90;;;;;;5092589;28;20177;-80
2021/10/08 07:43:50;;;;;;;14.33;11.03;;;11.70;99.90;;;;;;5091161;28;20211;-80
2021/10/08 07:46:16;;;;;;;14.50;11.27;;;11.80;99.90;;;;;;5091419;28;20568;-81
2021/10/08 07:48:41;;;;;;;13.63;10.40;;;11.90;99.90;;;;;;5091678;28;20216;-81
2021/10/08 07:51:07;;;;;;;13.20;10.47;;;12.10;99.90;;;;;;5108560;28;20177;-79
2021/10/08 07:53:32;;;;;;;14.97;10.03;;;12.30;99.90;;;;;;5090472;28;20177;-79
2021/10/08 07:55:58;;;;;;;14.80;10.00;;;12.40;99.90;;;;;;5090489;28;20173;-79
2021/10/08 07:58:27;;;;;;;13.90;10.03;;;12.60;99.90;;;;;;5090749;28;20193;-80
2021/10/08 08:00:56;;;;;;;11.27;9.37;;;12.80;99.90;;;;;;5090622;28;20624;-80
2021/10/08 08:03:22;;;;;;;14.10;9.97;;;13.00;99.90;;;;;;5091424;28;20737;-80
2021/10/08 08:05:48;;;;;;;13.03;9.50;;;13.00;99.90;;;;;;5108203;28;20204;-80
2021/10/08 08:08:13;;;;;;;12.23;9.23;;;13.20;99.90;;;;;;5074609;28;20714;-80
2021/10/08 08:10:39;;;;;;;13.50;9.47;;;13.40;99.90;;;;;;5091275;28;20227;-79
2021/10/08 08:13:05;;;;;;;10.57;8.87;;;13.40;99.90;;;;;;5106810;28;20256;-78
2021/10/08 08:15:30;;;;;;;11.30;8.73;;;13.60;99.90;;;;;;5091092;28;20199;-79
2021/10/08 08:17:56;;;;;;;10.20;8.23;;;13.80;99.90;;;;;;5090796;28;20213;-79
2021/10/08 08:20:21;;;;;;;9.20;7.63;;;14.10;99.90;;;;;;5090830;28;20206;-79
2021/10/08 08:22:47;;;;;;;11.00;7.80;;;14.20;99.90;;;;;;5090201;28;20705;-78
2021/10/08 08:25:12;;;;;;;10.67;8.33;;;14.40;99.90;;;;;;5107372;28;20176;-79
2021/10/08 08:27:38;;;;;;;9.80;7.87;;;14.60;99.90;;;;;;5107217;28;20177;-79
2021/10/08 08:30:05;;;;;;;10.17;8.13;;;14.70;99.90;;;;;;5106914;28;20191;-79
2021/10/08 08:32:31;;;;;;;9.43;7.27;;;15.20;99.90;;;;;;5108820;28;20170;-79
2021/10/08 08:34:58;;;;;;;10.47;8.23;;;15.80;99.90;;;;;;5081615;28;20182;-78
2021/10/08 08:37:23;;;;;;;9.63;7.60;;;16.30;99.90;;;;;;5076713;28;20222;-77
2021/10/08 08:39:49;;;;;;;9.67;7.93;;;17.00;99.90;;;;;;5076850;28;20716;-78
2021/10/08 08:42:21;;;;;;;9.50;7.83;;;17.50;99.90;;;;;;5081728;28;20201;-79
2021/10/08 08:44:47;;;;;;;9.93;7.83;;;18.40;99.90;;;;;;5098647;28;20172;-79
2021/10/08 08:47:17;;;;;;;10.33;7.23;;;19.00;99.90;;;;;;5074707;28;20217;-80
2021/10/08 08:49:42;;;;;;;10.33;8.13;;;19.80;99.90;;;;;;5057879;28;20191;-79
2021/10/08 08:52:08;;;;;;;14.80;11.80;;;20.50;99.90;;;;;;5091693;28;20186;-81
2021/10/08 08:54:34;;;;;;;13.07;9.03;;;19.30;99.90;;;;;;5094128;28;20177;-81
2021/10/08 08:57:00;;;;;;;10.83;8.07;;;17.90;99.90;;;;;;5076832;28;20169;-81
2021/10/08 08:59:25;;;;;;;10.83;7.53;;;17.70;99.90;;;;;;5076559;28;20197;-81
2021/10/08 09:02:04;;;;;;;8.73;7.23;;;18.70;99.90;;;;;;5076590;28;20203;-81
2021/10/08 09:04:30;;;;;;;9.47;7.60;;;20.10;99.90;;;;;;5075977;28;20188;-81
2021/10/08 09:06:56;;;;;;;9.93;7.97;;;20.50;99.90;;;;;;5093447;28;20166;-81
2021/10/08 09:09:22;;;;;;;8.97;7.47;;;19.70;99.90;;;;;;5075626;28;20198;-81
2021/10/08 09:11:49;;;;;;;10.23;7.70;;;20.10;99.90;;;;;;5093307;28;20175;-80
2021/10/08 09:14:20;;;;;;;16.33;7.80;;;20.80;99.90;;;;;;5076038;28;20187;-81
2021/10/08 09:17:21;;;;;;;8.20;6.87;;;21.10;99.90;;;;;;5071728;28;20193;-81
2021/10/08 09:19:53;;;;;;;9.73;7.30;;;21.30;99.90;;;;;;5070195;28;20575;-81
2021/10/08 09:22:30;;;;;;;8.80;6.70;;;20.90;99.90;;;;;;5051905;28;20209;-82
2021/10/08 09:25:26;;;;;;;9.13;6.57;;;20.80;99.90;;;;;;5073255;28;20173;-82
2021/10/08 09:28:11;;;;;;;8.07;6.30;;;20.10;99.90;;;;;;5041604;28;20190;-82
2021/10/08 09:30:41;;;;;;;9.40;6.03;;;20.20;99.90;;;;;;5073238;28;20171;-82
2021/10/08 09:33:14;;;;;;;7.33;6.23;;;20.70;99.90;;;;;;5056272;28;20178;-82
2021/10/08 09:35:40;;;;;;;7.80;6.93;;;20.80;99.90;;;;;;5079226;28;20701;-82
2021/10/08 09:38:10;;;;;;;10.30;6.60;;;20.80;99.90;;;;;;5093323;28;20208;-82
2021/10/08 09:40:51;;;;;;;7.50;6.40;;;21.10;99.90;;;;;;5076664;28;20178;-82
2021/10/08 09:43:23;;;;;;;8.53;6.67;;;21.10;99.90;;;;;;5076108;28;20204;-82
2021/10/08 09:45:56;;;;;;;7.10;6.40;;;20.90;99.90;;;;;;5075019;28;20166;-82
2021/10/08 09:48:23;;;;;;;10.50;6.70;;;20.30;99.90;;;;;;5075827;28;20662;-82
2021/10/08 09:51:04;;;;;;;9.63;7.50;;;19.60;99.90;;;;;;5075906;28;20178;-82
2021/10/08 09:53:30;;;;;;;10.97;6.93;;;19.10;99.90;;;;;;5076068;28;20211;-82
2021/10/08 09:55:56;;;;;;;7.83;7.03;;;18.80;99.90;;;;;;5061829;23;20638;-85
2021/10/08 09:58:22;;;;;;;10.23;7.43;;;18.60;99.90;;;;;;5013962;28;20200;-85
2021/10/08 10:01:11;;;;;;;7.83;7.00;;;18.10;99.90;;;;;;4997068;28;20664;-84
2021/10/08 10:03:36;;;;;;;9.53;7.50;;;17.60;99.90;;;;;;4997294;28;20200;-85
2021/10/08 10:06:04;;;;;;;8.43;7.33;;;17.40;99.90;;;;;;5012497;28;20517;-83
2021/10/08 10:08:30;;;;;;;8.37;7.57;;;17.40;99.90;;;;;;4995359;28;20245;-85
2021/10/08 10:10:56;;;;;;;8.30;7.37;;;17.30;99.90;;;;;;4995420;28;20180;-83
2021/10/08 10:13:22;;;;;;;9.03;7.27;;;17.20;99.90;;;;;;5011449;28;20180;-84
2021/10/08 10:15:48;;;;;;;8.27;7.10;;;17.10;99.90;;;;;;4995967;28;20676;-83
2021/10/08 10:18:15;;;;;;;8.90;6.73;;;17.20;99.90;;;;;;5012145;28;20263;-84
2021/10/08 10:20:48;;;;;;;8.77;5.43;;;17.20;99.90;;;;;;4995609;28;20669;-85
2021/10/08 10:23:15;;;;;;;5.60;5.00;;;17.20;99.90;;;;;;5011394;28;20306;-83
2021/10/08 10:25:41;;;;;;;11.30;6.00;;;17.20;99.90;;;;;;4995671;28;20611;-83
2021/10/08 10:28:06;;;;;;;6.03;4.93;;;17.30;99.90;;;;;;5012055;28;20244;-83
2021/10/08 10:30:33;;;;;;;7.57;5.57;;;17.30;99.90;;;;;;4994967;28;20195;-83
2021/10/08 10:32:58;;;;;;;7.63;5.43;;;17.60;99.90;;;;;;4994603;28;20183;-84
2021/10/08 10:36:00;;;;;;;6.03;5.50;;;17.70;99.90;;;;;;5011743;28;20250;-83
2021/10/08 10:38:36;;;;;;;5.80;5.17;;;17.80;99.90;;;;;;5010777;28;20227;-85
2021/10/08 10:41:08;;;;;;;7.20;5.50;;;17.70;99.90;;;;;;5009359;28;20198;-84
2021/10/08 10:43:44;;;;;;;4.93;4.43;;;17.70;99.90;;;;;;5011713;28;20207;-85
2021/10/08 10:46:45;;;;;;;6.37;4.50;;;17.80;99.90;;;;;;5010946;28;20167;-84
2021/10/08 10:51:59;;;;;;;8.30;5.43;;;18.10;99.90;;;;;;4996747;28;20156;-84
2021/10/08 10:54:34;;;;;;;6.27;4.47;;;18.30;99.90;;;;;;4996493;28;20179;-85
2021/10/08 10:57:06;;;;;;;6.37;4.53;;;18.40;99.90;;;;;;5010403;28;20199;-85
2021/10/08 10:59:36;;;;;;;5.70;4.43;;;18.40;99.90;;;;;;5010115;28;20199;-84
2021/10/08 11:04:40;;;;;;;10.47;4.87;;;18.60;99.90;;;;;;4995559;28;20682;-84
2021/10/08 11:07:16;;;;;;;4.97;4.47;;;18.70;99.90;;;;;;5009345;28;20164;-84
2021/10/08 11:10:01;;;;;;;6.97;4.40;;;18.70;99.90;;;;;;4994449;28;20196;-84
2021/10/08 11:12:42;;;;;;;5.47;4.50;;;18.80;99.90;;;;;;5024269;28;20191;-84
2021/10/08 11:15:17;;;;;;;5.67;5.07;;;18.80;99.90;;;;;;5011145;28;20523;-85
2021/10/08 11:17:53;;;;;;;4.53;4.07;;;18.80;99.90;;;;;;5010634;28;20204;-85
2021/10/08 11:20:43;;;;;;;5.10;4.17;;;18.90;99.90;;;;;;5011744;28;20187;-85
2021/10/08 11:23:28;;;;;;;5.73;4.23;;;18.90;99.90;;;;;;5008591;28;20212;-85
2021/10/08 11:26:01;;;;;;;8.67;4.73;;;18.80;99.90;;;;;;5011242;28;20171;-84
2021/10/08 11:28:35;;;;;;;4.63;4.23;;;18.60;99.90;;;;;;4995159;28;20193;-85
2021/10/08 11:31:01;;;;;;;6.27;4.47;;;18.40;99.90;;;;;;5010299;28;20168;-84
2021/10/08 11:33:34;;;;;;;6.63;4.13;;;18.30;99.90;;;;;;4994759;28;20738;-85
2021/10/08 11:36:11;;;;;;;6.43;4.73;;;18.20;99.90;;;;;;5011021;28;20180;-84
2021/10/08 11:38:36;;;;;;;7.73;5.20;;;18.10;99.90;;;;;;4995287;28;20270;-83
2021/10/08 11:41:19;;;;;;;7.30;5.10;;;17.90;99.90;;;;;;5011396;28;20645;-82
2021/10/08 11:43:46;;;;;;;5.53;4.37;;;17.80;99.90;;;;;;4994962;28;20196;-83
2021/10/08 11:46:22;;;;;;;6.63;5.20;;;17.80;99.90;;;;;;4994737;28;20203;-84
2021/10/08 11:48:59;;;;;;;5.77;4.20;;;17.70;99.90;;;;;;4996411;28;20222;-81
2021/10/08 11:51:25;;;;;;;5.60;4.30;;;17.70;99.90;;;;;;4997183;28;20175;-82
2021/10/08 11:53:58;;;;;;;5.93;4.30;;;17.70;99.90;;;;;;5013167;28;20672;-83
2021/10/08 11:56:28;;;;;;;5.33;4.20;;;17.70;99.90;;;;;;5015560;28;20211;-84
2021/10/08 11:58:55;;;;;;;5.47;4.27;;;17.60;99.90;;;;;;5013330;28;20473;-83
2021/10/08 12:01:24;;;;;;;5.93;4.13;;;17.60;99.90;;;;;;5027552;28;20257;-81
2021/10/08 12:03:50;;;;;;;4.80;4.30;;;17.60;99.90;;;;;;4996429;28;20246;-83
2021/10/08 12:06:26;;;;;;;5.20;4.10;;;17.50;99.90;;;;;;4994727;28;20165;-83
2021/10/08 12:08:53;;;;;;;4.80;4.23;;;17.60;99.90;;;;;;4995208;28;20234;-83
2021/10/08 12:11:20;;;;;;;5.00;4.50;;;17.60;99.90;;;;;;4999069;28;20172;-82
2021/10/08 12:14:04;;;;;;;7.50;3.97;;;17.60;99.90;;;;;;4999710;28;20192;-83
2021/10/08 12:16:36;;;;;;;5.93;4.40;;;17.60;99.90;;;;;;4998682;28;20230;-84
2021/10/08 12:19:02;;;;;;;5.73;5.17;;;17.60;99.90;;;;;;5015340;28;20206;-83
2021/10/08 12:21:31;;;;;;;8.50;4.63;;;17.60;99.90;;;;;;4998876;28;20173;-85
2021/10/08 12:24:11;;;;;;;6.93;5.13;;;17.60;99.90;;;;;;4999602;28;20241;-83
2021/10/08 12:26:38;;;;;;;7.37;5.27;;;17.60;99.90;;;;;;5015484;28;20195;-84
2021/10/08 12:29:11;;;;;;;5.17;4.23;;;17.60;99.90;;;;;;5015433;28;20273;-84
2021/10/08 12:31:45;;;;;;;5.97;4.33;;;17.50;99.90;;;;;;5010635;28;20172;-83
2021/10/08 12:34:10;;;;;;;7.00;4.00;;;17.60;99.90;;;;;;4995997;28;20642;-84
2021/10/08 12:36:36;;;;;;;6.77;5.40;;;17.60;99.90;;;;;;4995491;28;20187;-84
2021/10/08 12:39:05;;;;;;;6.00;4.40;;;17.70;99.90;;;;;;4996000;28;20219;-83
2021/10/08 12:41:47;;;;;;;5.97;4.17;;;17.70;99.90;;;;;;5013192;28;20595;-83
2021/10/08 12:44:23;;;;;;;4.57;4.03;;;17.80;99.90;;;;;;4996676;28;20302;-81
2021/10/08 12:47:08;;;;;;;5.23;4.33;;;17.90;99.90;;;;;;4996901;28;20818;-84